Mount Vernon, WA (98273)

4:55 PM PST on January 19, 2017 (GMT -0800)
13th Street, Hillcrest Park | | Change Station
Active Advisory: Small Craft Advisory

Elev 175 ft 48.41 °N, 122.33 °W | Updated 1 second ago

Rain
Rain
45.5 °F
Feels Like 41 °F
N
8.9
Wind Variable Wind from ESE

Today
High -- | Low -- °F
--% Chance of Precip.
Yesterday
High -- | Low -- °F
Precip. -- in
Pressure 29.48 in
Visibility 10.0 miles
Clouds Mostly Cloudy 2400 ft
Mostly Cloudy 7000 ft
Overcast 8000 ft
Windchill 41 °F
Dew Point 42 °F
Humidity 88%
Rainfall 0.99 in
Snow Depth Not available.
7:52 AM 4:48 PM
Waning Gibbous, 49% visible
METAR KNUW 192356Z 15018G25KT 10SM BKN024 BKN070 OVC080 09/04 A2948 RMK PK WND 16030/2258 SLP982 T00940039 10111 20094 55005
Pressure 29.48 in
Visibility 10.0 miles
Clouds Mostly Cloudy 2400 ft
Mostly Cloudy 7000 ft
Overcast 8000 ft
Windchill 41 °F
Dew Point 42 °F
Humidity 88%
Rainfall 0.99 in
Snow Depth Not available.
7:52 AM 4:48 PM
Waning Gibbous, 49% visible
METAR KNUW 192356Z 15018G25KT 10SM BKN024 BKN070 OVC080 09/04 A2948 RMK PK WND 16030/2258 SLP982 T00940039 10111 20094 55005

Get Your Daily Forecast Email!

Thanks for signing up!

Be on the lookout for a verification email in your inbox.

You'll start receiving the daily forecast at 8 AM.

×

10-Day Weather Forecast

Almanac

Astronomy

Jan. 19, 2017 Rise Set
Actual Time
Civil Twilight
Nautical Twilight
Astronomical Twilight
Moon
Length of Visible Light
Length of Day
Tomorrow will be .
, % of the Moon is Illuminated

Today's Extremes

State Highs State Lows

Community

WunderPhotos

Upload Photos

1,962,540 photos uploaded!

WunderBlog® & News

Nearby

Air Quality

  Air Quality AQ Index Pollutant
Not available.

Snow Depth

Station Depth Elevation

Earthquake Activity

City Distance Mag. Time & Date
Minimum magnitude displayed is 2.5.

Coastal Water Temperatures

Place Temperature

Stations

Nearby Weather Stations

Station Location Temp. Windchill Dew Point Humidity Wind Precip. Elev Updated Type
                   

Watches & Warnings

Small Craft Advisory
Issued: 2:50 PM PST Jan. 19, 2017 – National Weather Service

... Small Craft Advisory now in effect until 4 PM PST Friday...

* winds... southeast 15 to 30 kt.

Precautionary/preparedness actions...

A Small Craft Advisory means that wind speeds of 21 to 33 knots are
expected to produce hazardous wave conditions to small craft.
Inexperienced mariners... especially those operating smaller vessels
should avoid navigating in these conditions.